createdAt,value
2017-06-24T00:03:26.206Z,75.76
2017-06-24T00:04:07.087Z,75.19
2017-06-24T00:04:47.978Z,75.19
2017-06-24T00:05:28.862Z,75.67
2017-06-24T00:06:09.751Z,76.06
2017-06-24T00:06:50.657Z,75.96
2017-06-24T00:07:31.569Z,75.8
2017-06-24T00:08:12.466Z,76.38
2017-06-24T00:08:53.358Z,77.01
2017-06-24T00:09:34.247Z,76.86
2017-06-24T00:10:15.141Z,76.48
2017-06-24T00:10:56.030Z,76.57
2017-06-24T00:11:36.917Z,76.28
2017-06-24T00:12:17.861Z,77.01
2017-06-24T00:12:58.725Z,76.92
2017-06-24T00:14:26.827Z,77.01
2017-06-24T00:15:07.726Z,77.01
2017-06-24T00:15:48.612Z,76.57
2017-06-24T00:16:29.505Z,77.34
2017-06-24T00:17:10.402Z,77.01
2017-06-24T00:17:51.283Z,77.01
2017-06-24T00:18:32.225Z,76.82
2017-06-24T00:19:13.083Z,76.92
2017-06-24T00:19:53.966Z,77.5
2017-06-24T00:20:34.856Z,77.4
2017-06-24T00:21:15.760Z,77.31
2017-06-24T00:21:56.624Z,77.01
2017-06-24T00:22:37.507Z,78.85
2017-06-24T00:23:18.410Z,78.94
2017-06-24T00:23:59.293Z,78.85
2017-06-24T00:26:13.876Z,79.43
2017-06-24T00:26:54.806Z,79.52
2017-06-24T00:27:35.672Z,79.33
2017-06-24T00:28:16.564Z,80
2017-06-24T00:28:57.476Z,80.83
2017-06-24T00:31:12.182Z,81.3
2017-06-24T00:31:53.078Z,81.56
2017-06-24T00:32:33.972Z,81.65
2017-06-24T00:33:14.847Z,81.88
2017-06-24T00:33:56.628Z,81.21
2017-06-24T00:34:37.510Z,81.02
2017-06-24T00:35:18.401Z,81.12
2017-06-24T00:35:59.306Z,80.1
2017-06-24T00:36:40.203Z,79.77
2017-06-24T00:37:21.089Z,80.06
2017-06-24T00:38:01.971Z,80.15
2017-06-24T00:38:42.874Z,79.86
2017-06-24T00:39:23.765Z,80.44
2017-06-24T00:41:19.380Z,81.02
2017-06-24T00:42:00.273Z,81.94
2017-06-24T00:42:41.159Z,81.21
2017-06-24T00:43:23.861Z,81.21
2017-06-24T00:44:04.734Z,81.65
2017-06-24T00:47:57.774Z,80.15
2017-06-24T00:48:38.677Z,80.15
2017-06-24T00:49:19.551Z,80.06
2017-06-24T00:50:00.432Z,80.19
2017-06-24T00:50:41.323Z,80
2017-06-24T00:51:22.193Z,80.15
2017-06-24T00:52:03.078Z,80
2017-06-24T00:54:20.070Z,80.25
2017-06-24T00:55:00.946Z,80.63
2017-06-24T00:55:41.819Z,80.83
2017-06-24T00:56:22.719Z,80.54
2017-06-24T00:57:03.605Z,81.12
2017-06-24T00:57:44.475Z,81.88
2017-06-24T00:58:25.364Z,81.79
2017-06-24T01:01:17.765Z,81.5
2017-06-24T01:01:58.658Z,81.5
2017-06-24T01:02:39.543Z,81.7
2017-06-24T01:03:20.427Z,81.3
2017-06-24T01:04:01.314Z,80.83
2017-06-24T01:06:18.033Z,80.35
2017-06-24T01:06:58.947Z,80.44
2017-06-24T01:09:12.726Z,81.75
2017-06-24T01:09:53.622Z,81.65
2017-06-24T01:10:34.514Z,82.9
2017-06-24T01:11:15.431Z,82.42
2017-06-24T01:11:56.324Z,82.42
2017-06-24T01:14:11.093Z,82.32
2017-06-24T01:14:51.976Z,82.71
2017-06-24T01:15:32.878Z,82.71
2017-06-24T01:16:13.759Z,82.61
2017-06-24T01:16:54.643Z,82.81
2017-06-24T01:17:35.524Z,82.32
2017-06-24T01:18:16.414Z,81.6
2017-06-24T01:18:57.302Z,81.21
2017-06-24T01:22:46.873Z,82.52
2017-06-24T01:23:27.760Z,82.27
2017-06-24T01:24:08.677Z,81.6
2017-06-24T01:24:49.551Z,81.5
2017-06-24T01:25:30.460Z,81.79
2017-06-24T01:26:11.382Z,81.84
2017-06-24T01:26:52.240Z,82.71
2017-06-24T01:27:33.125Z,82.9
2017-06-24T01:28:14.039Z,83.39
2017-06-24T01:28:55.695Z,83.58
2017-06-24T01:29:36.584Z,83.86
2017-06-24T01:30:17.465Z,83.39
2017-06-24T01:30:58.360Z,83.19
2017-06-24T01:31:39.260Z,83.48
2017-06-24T01:32:20.145Z,83.29
2017-06-24T01:33:02.725Z,82.9
2017-06-24T01:36:18.810Z,83.19
2017-06-24T01:36:59.702Z,82.61
2017-06-24T01:42:52.645Z,81.21
2017-06-24T01:43:33.537Z,81.21
2017-06-24T01:45:10.486Z,81.5
2017-06-24T01:45:51.361Z,81.3
2017-06-24T01:46:32.282Z,81.4
2017-06-24T01:47:13.162Z,81.7
2017-06-24T01:47:54.040Z,81.98
2017-06-24T01:48:34.957Z,81.21
2017-06-24T01:49:15.841Z,81.21
2017-06-24T01:49:56.729Z,81.12
2017-06-24T01:52:10.536Z,81.7
2017-06-24T01:52:51.377Z,81.4
2017-06-24T01:53:32.362Z,81.6
2017-06-24T01:54:13.254Z,81.02
2017-06-24T01:54:54.146Z,81.02
2017-06-24T01:55:35.031Z,80.83
2017-06-24T01:56:15.903Z,80.63
2017-06-24T01:56:56.801Z,80.54
2017-06-24T02:00:13.762Z,82.27
2017-06-24T02:02:56.561Z,82.46
2017-06-24T02:06:13.934Z,81.88
2017-06-24T02:06:54.838Z,81.6
2017-06-24T02:07:36.054Z,81.4
2017-06-24T02:10:36.163Z,81.3
2017-06-24T02:12:40.416Z,80.83
2017-06-24T02:13:21.297Z,80.63
2017-06-24T02:15:11.614Z,80.54
2017-06-24T02:15:52.497Z,80.25
2017-06-24T02:16:33.407Z,80.54
2017-06-24T02:17:14.310Z,80.44
2017-06-24T02:17:55.255Z,80.54
2017-06-24T02:18:36.132Z,80.83
2017-06-24T02:19:17.025Z,81.02
2017-06-24T02:19:57.965Z,81.3
2017-06-24T02:21:51.808Z,80.83
2017-06-24T02:24:33.034Z,81.02
2017-06-24T02:25:13.916Z,80.63
2017-06-24T02:28:26.180Z,81.37
2017-06-24T02:29:07.081Z,82.04
2017-06-24T02:29:48.731Z,81.79
2017-06-24T02:30:29.622Z,81.88
2017-06-24T02:31:10.515Z,81.6
2017-06-24T02:31:51.420Z,81.79
2017-06-24T02:32:32.307Z,81.5
2017-06-24T02:33:15.039Z,81.21
2017-06-24T02:33:55.941Z,80.25
2017-06-24T02:34:36.840Z,80.06
2017-06-24T02:35:17.678Z,80.35
2017-06-24T02:35:58.759Z,80.25
2017-06-24T02:37:34.259Z,80.06
2017-06-24T02:38:15.140Z,79.86
2017-06-24T02:38:56.027Z,79.77
2017-06-24T02:41:12.328Z,79.86
2017-06-24T02:41:53.218Z,79.96
2017-06-24T02:42:34.111Z,79.86
2017-06-24T02:43:15.168Z,80.15
2017-06-24T02:43:56.091Z,78.9
2017-06-24T02:46:13.929Z,79.1
2017-06-24T02:46:54.900Z,78.52
2017-06-24T02:47:35.782Z,79.1
2017-06-24T02:48:16.654Z,78.81
2017-06-24T02:48:57.558Z,79.19
2017-06-24T02:49:40.440Z,79.1
2017-06-24T02:50:21.568Z,78.9
2017-06-24T02:57:11.008Z,77.84
2017-06-24T03:00:08.179Z,77.94
2017-06-24T03:00:49.062Z,76.84
2017-06-24T03:01:29.942Z,77.17
2017-06-24T03:02:10.825Z,77.42
2017-06-24T03:02:51.716Z,77.04
2017-06-24T03:03:32.611Z,76.65
2017-06-24T03:04:13.552Z,77.23
2017-06-24T03:04:54.449Z,76.75
2017-06-24T03:05:35.337Z,75.31
2017-06-24T03:06:16.207Z,75.79
2017-06-24T03:06:58.038Z,76.26
2017-06-24T03:07:38.933Z,75.69
2017-06-24T03:08:19.836Z,75.69
2017-06-24T03:09:00.698Z,76.36
2017-06-24T03:09:41.592Z,77.42
2017-06-24T03:10:22.509Z,76.65
2017-06-24T03:12:10.749Z,75.79
2017-06-24T03:12:51.634Z,75.88
2017-06-24T03:13:32.566Z,75.69
2017-06-24T03:14:13.460Z,75.69
2017-06-24T03:14:54.363Z,75.69
2017-06-24T03:15:35.254Z,75.49
2017-06-24T03:16:16.144Z,75.49
2017-06-24T03:16:57.033Z,76.07
2017-06-24T03:19:10.798Z,75.98
2017-06-24T03:21:08.347Z,75.88
2017-06-24T03:21:49.232Z,75.69
2017-06-24T03:22:30.105Z,76.42
2017-06-24T03:23:10.997Z,76.42
2017-06-24T03:23:51.879Z,76.32
2017-06-24T03:24:32.757Z,75.88
2017-06-24T03:25:13.650Z,76.46
2017-06-24T03:25:56.066Z,76.65
2017-06-24T03:26:36.950Z,76.75
2017-06-24T03:27:17.826Z,75.31
2017-06-24T03:27:58.690Z,75.21
2017-06-24T03:33:24.507Z,76.01
2017-06-24T03:34:05.373Z,75.49
2017-06-24T03:34:46.444Z,75.4
2017-06-24T03:35:27.302Z,75.59
2017-06-24T03:36:08.216Z,75.79
2017-06-24T03:36:49.150Z,75.79
2017-06-24T03:37:29.986Z,76.17
2017-06-24T03:38:10.884Z,76.14
2017-06-24T03:38:51.804Z,76.14
2017-06-24T03:39:32.716Z,76.61
2017-06-24T03:40:13.605Z,77.29
2017-06-24T03:40:54.469Z,77
2017-06-24T03:43:10.979Z,76.71
2017-06-24T03:43:51.865Z,76.52
2017-06-24T03:47:05.658Z,77.38
2017-06-24T03:47:46.551Z,76.81
2017-06-24T03:49:45.439Z,78.34
2017-06-24T03:50:26.573Z,78.25
2017-06-24T03:51:07.465Z,79.02
2017-06-24T03:51:48.356Z,78.78
2017-06-24T03:52:29.278Z,79.07
2017-06-24T03:53:10.261Z,79.07
2017-06-24T03:53:51.189Z,79.17
2017-06-24T03:54:32.056Z,79.17
2017-06-24T03:55:12.964Z,78.98
2017-06-24T03:55:53.868Z,79.65
2017-06-24T03:59:05.032Z,78.63
2017-06-24T03:59:45.916Z,77.86
2017-06-24T04:00:26.819Z,78.44
2017-06-24T04:01:07.724Z,78.53
2017-06-24T04:01:48.641Z,79.02
2017-06-24T04:02:29.523Z,79.17
2017-06-24T04:03:10.409Z,79.27
2017-06-24T04:03:51.294Z,79.17
2017-06-24T04:04:32.182Z,79.84
2017-06-24T04:05:13.055Z,79.55
2017-06-24T04:05:53.967Z,79.3
2017-06-24T04:06:34.852Z,79.3
2017-06-24T04:07:15.732Z,78.73
2017-06-24T04:07:56.666Z,79.11
2017-06-24T04:10:10.430Z,79.84
2017-06-24T04:10:51.320Z,79.55
2017-06-24T04:11:32.199Z,80.13
2017-06-24T04:12:13.081Z,79.94
2017-06-24T04:12:53.959Z,79.79
2017-06-24T04:15:13.791Z,78.83
2017-06-24T04:15:54.676Z,80.07
2017-06-24T04:16:35.558Z,79.79
2017-06-24T04:17:16.441Z,79.75
2017-06-24T04:17:57.346Z,79.94
2017-06-24T04:18:42.533Z,79.84
2017-06-24T04:19:23.441Z,79.94
2017-06-24T04:22:51.542Z,79.98
2017-06-24T04:23:33.393Z,80.07
2017-06-24T04:24:14.189Z,79.5
2017-06-24T04:24:55.070Z,79.88
2017-06-24T04:25:35.956Z,80.51
2017-06-24T04:26:16.901Z,80.51
2017-06-24T04:26:57.798Z,81.76
2017-06-24T04:27:38.711Z,81.38
2017-06-24T04:28:19.562Z,81.19
2017-06-24T04:29:00.483Z,81.67
2017-06-24T04:29:41.406Z,82.05
2017-06-24T04:30:22.295Z,82.63
2017-06-24T04:31:05.954Z,82.24
2017-06-24T04:31:46.836Z,82.43
2017-06-24T04:32:29.242Z,82.15
2017-06-24T04:33:10.132Z,82.24
2017-06-24T04:33:51.010Z,82.24
2017-06-24T04:34:31.911Z,82.15
2017-06-24T04:35:12.803Z,82.63
2017-06-24T04:35:53.683Z,82.53
2017-06-24T04:36:34.567Z,83.3
2017-06-24T04:37:15.451Z,83.2
2017-06-24T04:37:56.335Z,83.2
2017-06-24T04:38:37.232Z,82.63
2017-06-24T04:39:18.218Z,81.99
2017-06-24T04:39:59.180Z,81.76
2017-06-24T04:42:13.092Z,83.2
2017-06-24T04:42:54.042Z,83.49
2017-06-24T04:45:08.348Z,83.3
2017-06-24T04:45:49.564Z,83.2
2017-06-24T04:46:30.473Z,82.15
2017-06-24T04:47:11.334Z,82.53
2017-06-24T04:47:52.225Z,82.15
2017-06-24T04:48:33.114Z,82.43
2017-06-24T04:49:14.021Z,83.11
2017-06-24T04:49:54.901Z,83.11
2017-06-24T04:50:35.810Z,82.53
2017-06-24T04:51:16.690Z,82.43
2017-06-24T04:51:57.578Z,83.01
2017-06-24T04:52:38.464Z,83.3
2017-06-24T04:53:19.345Z,83.97
2017-06-24T04:54:00.228Z,83.93
2017-06-24T04:54:41.132Z,84.26
2017-06-24T04:55:22.133Z,83.97
2017-06-24T04:56:02.929Z,83.97
2017-06-24T04:56:43.798Z,83.78
2017-06-24T04:57:24.690Z,84.31
2017-06-24T04:58:05.578Z,85.57
2017-06-24T04:58:46.476Z,85.18
2017-06-24T04:59:27.354Z,85.95
2017-06-24T05:00:08.244Z,85.95
2017-06-24T05:00:49.142Z,86.05
2017-06-24T05:01:30.021Z,85.66
2017-06-24T05:02:10.907Z,86.33
2017-06-24T05:02:51.790Z,86.43
2017-06-24T05:03:32.692Z,86.24
2017-06-24T05:04:13.585Z,85.89
2017-06-24T05:04:54.479Z,85.41
2017-06-24T05:05:35.356Z,85.32
2017-06-24T05:06:16.231Z,85.22
2017-06-24T05:06:57.121Z,85.32
2017-06-24T05:07:38.050Z,85.32
2017-06-24T05:08:18.937Z,84.17
2017-06-24T05:08:59.850Z,84.45
2017-06-24T05:09:40.750Z,84.78
2017-06-24T05:10:21.640Z,84.88
2017-06-24T05:11:02.526Z,84.64
2017-06-24T05:11:43.407Z,84.64
2017-06-24T05:12:24.310Z,84.45
2017-06-24T05:13:05.198Z,84.17
2017-06-24T05:13:46.076Z,84.36
2017-06-24T05:14:26.961Z,84.01
2017-06-24T05:15:07.887Z,83.53
2017-06-24T05:15:48.762Z,84.01
2017-06-24T05:16:29.656Z,83.73
2017-06-24T05:17:10.552Z,83.92
2017-06-24T05:17:51.424Z,84.84
2017-06-24T05:18:32.305Z,85.22
2017-06-24T05:19:13.229Z,84.69
2017-06-24T05:19:54.110Z,84.3
2017-06-24T05:20:34.995Z,84.3
2017-06-24T05:21:15.893Z,84.5
2017-06-24T05:21:56.777Z,84.45
2017-06-24T05:22:37.662Z,84.4
2017-06-24T05:23:18.558Z,84.21
2017-06-24T05:23:59.445Z,84.84
2017-06-24T05:24:40.344Z,85.03
2017-06-24T05:25:21.233Z,85.41
2017-06-24T05:26:02.121Z,86.09
2017-06-24T05:26:43.015Z,85.61
2017-06-24T05:27:23.907Z,85.22
2017-06-24T05:28:04.808Z,85.75
2017-06-24T05:28:45.701Z,85.27
2017-06-24T05:29:26.599Z,85.61
2017-06-24T05:30:07.498Z,85.27
2017-06-24T05:30:48.371Z,84.98
2017-06-24T05:31:29.267Z,85.27
2017-06-24T05:32:10.153Z,85.27
2017-06-24T05:32:51.057Z,84.78
2017-06-24T05:33:31.946Z,84.01
2017-06-24T05:34:12.841Z,83.83
2017-06-24T05:34:53.726Z,83.06
2017-06-24T05:35:34.627Z,83.92
2017-06-24T05:36:15.517Z,84.88
2017-06-24T05:36:56.428Z,83.63
2017-06-24T05:37:37.321Z,83.63
2017-06-24T05:38:18.206Z,84.59
2017-06-24T05:38:59.090Z,85.32
2017-06-24T05:39:39.986Z,84.98
2017-06-24T05:40:20.878Z,85.22
2017-06-24T05:41:01.773Z,85.41
2017-06-24T05:41:42.665Z,85.07
2017-06-24T05:42:23.549Z,84.3
2017-06-24T05:43:04.436Z,83.73
2017-06-24T05:43:45.323Z,84.01
2017-06-24T05:44:26.211Z,83.73
2017-06-24T05:45:07.096Z,83.86
2017-06-24T05:45:47.989Z,84.01
2017-06-24T05:46:28.875Z,84.59
2017-06-24T05:47:09.761Z,83.73
2017-06-24T05:47:50.663Z,83.73
2017-06-24T05:48:31.543Z,83.63
2017-06-24T05:49:12.405Z,83.73
2017-06-24T05:49:53.299Z,83.53
2017-06-24T05:50:34.192Z,83.67
2017-06-24T05:51:15.087Z,83.39
2017-06-24T05:51:55.962Z,83.39
2017-06-24T05:52:36.893Z,83.19
2017-06-24T05:53:17.789Z,82.96
2017-06-24T05:53:58.705Z,84.21
2017-06-24T05:54:39.669Z,84.3
2017-06-24T05:55:20.490Z,83.53
2017-06-24T05:56:01.384Z,83.44
2017-06-24T05:56:42.286Z,83
2017-06-24T05:57:23.177Z,83
2017-06-24T05:58:04.067Z,82.61
2017-06-24T05:58:44.959Z,82.52
2017-06-24T05:59:25.897Z,82.04
2017-06-24T06:00:06.782Z,82.23
2017-06-24T06:00:47.682Z,82.04
2017-06-24T06:01:28.585Z,82.71
2017-06-24T06:02:09.472Z,82.71
2017-06-24T06:02:50.361Z,82.42
2017-06-24T06:03:31.241Z,81.75
2017-06-24T06:04:12.126Z,81.37
2017-06-24T06:04:53.090Z,81.46
2017-06-24T06:07:09.838Z,82.52
2017-06-24T06:07:50.739Z,82.32
2017-06-24T06:09:28.778Z,83.25
2017-06-24T06:10:09.670Z,83.09
2017-06-24T06:10:50.640Z,82.14
2017-06-24T06:11:31.525Z,81.56
2017-06-24T06:12:12.470Z,81.46
2017-06-24T06:12:53.319Z,81.65
2017-06-24T06:13:34.195Z,81.94
2017-06-24T06:14:15.077Z,80.79
2017-06-24T06:14:55.957Z,81.65
2017-06-24T06:15:36.850Z,82.09
2017-06-24T06:16:17.733Z,83.15
2017-06-24T06:16:58.638Z,83.15
2017-06-24T06:17:39.520Z,82.32
2017-06-24T06:18:20.445Z,82.52
2017-06-24T06:19:01.328Z,81.65
2017-06-24T06:19:42.207Z,81.27
2017-06-24T06:20:23.096Z,80.92
2017-06-24T06:21:03.991Z,80.06
2017-06-24T06:21:44.884Z,80.15
2017-06-24T06:22:27.449Z,79.96
2017-06-24T06:23:08.341Z,79.96
2017-06-24T06:23:49.237Z,79.96
2017-06-24T06:24:30.128Z,79.48
2017-06-24T06:25:58.237Z,80.06
2017-06-24T06:26:39.133Z,80.4
2017-06-24T06:27:20.021Z,81.02
2017-06-24T06:28:00.905Z,80.35
2017-06-24T06:28:41.836Z,80.06
2017-06-24T06:29:22.724Z,80.15
2017-06-24T06:30:03.629Z,80.06
2017-06-24T06:30:44.534Z,80.25
2017-06-24T06:31:25.426Z,79.38
2017-06-24T06:32:06.322Z,79.38
2017-06-24T06:32:47.210Z,80.06
2017-06-24T06:33:28.097Z,80.35
2017-06-24T06:34:08.992Z,79.96
2017-06-24T06:34:49.887Z,80.06
2017-06-24T06:35:30.769Z,79.96
2017-06-24T06:36:11.670Z,79.67
2017-06-24T06:36:52.540Z,79.58
2017-06-24T06:37:33.445Z,79
2017-06-24T06:38:14.349Z,79.48
2017-06-24T06:38:55.239Z,80.06
2017-06-24T06:39:36.127Z,79.96
2017-06-24T06:40:17.020Z,80.83
2017-06-24T06:40:57.913Z,79.77
2017-06-24T06:41:38.799Z,79.96
2017-06-24T06:42:19.683Z,80.25
2017-06-24T06:43:00.656Z,79.77
2017-06-24T06:43:41.550Z,79.96
2017-06-24T06:44:22.438Z,79.58
2017-06-24T06:45:03.331Z,80.06
2017-06-24T06:45:44.575Z,79.86
2017-06-24T06:46:25.456Z,79.96
2017-06-24T06:47:06.348Z,80.35
2017-06-24T06:49:05.105Z,81.65
2017-06-24T06:49:46.023Z,81.7
2017-06-24T06:50:26.928Z,82.56
2017-06-24T06:52:05.480Z,82.52
2017-06-24T06:52:46.342Z,82.75
2017-06-24T06:54:14.504Z,83.58
2017-06-24T06:54:55.375Z,84.06
2017-06-24T06:55:36.293Z,83.77
2017-06-24T06:56:17.198Z,83.23
2017-06-24T06:56:58.087Z,82.56
2017-06-24T06:57:39.019Z,82.46
2017-06-24T06:58:19.891Z,81.88
2017-06-24T06:59:00.764Z,81.98
2017-06-24T06:59:41.625Z,82.32
2017-06-24T07:00:22.481Z,82.27
2017-06-24T07:01:03.351Z,81.79
2017-06-24T07:01:44.239Z,82.75
2017-06-24T07:02:25.142Z,82.42
2017-06-24T07:03:06.016Z,82.17
2017-06-24T07:03:46.874Z,82.56
2017-06-24T07:04:27.744Z,82.46
2017-06-24T07:05:08.619Z,82.75
2017-06-24T07:05:49.509Z,82.37
2017-06-24T07:06:30.382Z,82.37
2017-06-24T07:07:11.250Z,81.7
2017-06-24T07:09:10.063Z,81.6
2017-06-24T07:09:50.994Z,82.46
2017-06-24T07:10:31.873Z,82.27
2017-06-24T07:11:12.768Z,81.88
2017-06-24T07:11:53.663Z,81.83
2017-06-24T07:12:34.541Z,81.98
2017-06-24T07:13:15.421Z,81.88
2017-06-24T07:13:56.276Z,81.7
2017-06-24T07:14:37.151Z,81.83
2017-06-24T07:15:18.042Z,82.65
2017-06-24T07:15:58.913Z,82.56
2017-06-24T07:16:39.772Z,82.75
2017-06-24T07:17:20.653Z,82.17
2017-06-24T07:18:01.514Z,81.7
2017-06-24T07:18:42.376Z,81.5
2017-06-24T07:19:23.235Z,81.88
2017-06-24T07:20:04.109Z,82.5
2017-06-24T07:20:44.994Z,82.7
2017-06-24T07:21:25.879Z,81.83
2017-06-24T07:22:06.738Z,81.54
2017-06-24T07:22:47.621Z,81.16
2017-06-24T07:23:28.513Z,81.06
2017-06-24T07:24:09.412Z,80.87
2017-06-24T07:24:50.300Z,81.7
2017-06-24T07:25:31.215Z,81.88
2017-06-24T07:26:12.098Z,82.65
2017-06-24T07:26:52.964Z,83.04
2017-06-24T07:27:33.845Z,82.56
2017-06-24T07:28:14.711Z,81.93
2017-06-24T07:28:55.569Z,81.73
2017-06-24T07:29:36.457Z,81.54
2017-06-24T07:30:17.333Z,81.25
2017-06-24T07:30:58.200Z,81.45
2017-06-24T07:31:39.099Z,81.06
2017-06-24T07:32:19.990Z,80.87
2017-06-24T07:33:00.873Z,81.4
2017-06-24T07:33:41.750Z,82.08
2017-06-24T07:34:22.602Z,82.08
2017-06-24T07:35:03.527Z,83.33
2017-06-24T07:35:44.409Z,83.14
2017-06-24T07:36:25.285Z,82.17
2017-06-24T07:37:06.139Z,82.02
2017-06-24T07:37:46.993Z,81.73
2017-06-24T07:38:27.855Z,81.98
2017-06-24T07:39:08.720Z,82.17
2017-06-24T07:39:49.605Z,82.7
2017-06-24T07:40:30.484Z,82.41
2017-06-24T07:41:11.375Z,81.93
2017-06-24T07:41:52.256Z,82.7
2017-06-24T07:42:33.119Z,81.73
2017-06-24T07:43:14.005Z,81.16
2017-06-24T07:43:54.872Z,80.38
2017-06-24T07:44:35.762Z,80.38
2017-06-24T07:45:16.656Z,80.58
2017-06-24T07:45:57.545Z,81.16
2017-06-24T07:46:38.420Z,81.88
2017-06-24T07:47:19.303Z,82.37
2017-06-24T07:48:00.186Z,82.79
2017-06-24T07:49:28.321Z,82.56
2017-06-24T07:50:09.218Z,83.42
2017-06-24T07:50:50.118Z,83.33
2017-06-24T07:51:30.993Z,82.41
2017-06-24T07:52:11.867Z,81.93
2017-06-24T07:52:52.741Z,82.02
2017-06-24T07:53:33.662Z,81.73
2017-06-24T07:54:14.525Z,81.63
2017-06-24T07:54:55.395Z,81.79
2017-06-24T07:55:36.277Z,81.73
2017-06-24T07:57:29.928Z,80.77
2017-06-24T07:58:10.852Z,81.93
2017-06-24T07:58:51.715Z,81.63
2017-06-24T07:59:32.590Z,80.58
2017-06-24T08:00:13.463Z,80.14
2017-06-24T08:00:54.344Z,80.04
2017-06-24T08:01:35.239Z,80.14
2017-06-24T08:02:16.128Z,80.19
2017-06-24T08:02:57.035Z,79.94
2017-06-24T08:03:37.939Z,80
2017-06-24T08:04:18.804Z,80.43
2017-06-24T08:04:59.667Z,80.14
2017-06-24T08:05:40.538Z,80.33
2017-06-24T08:06:21.439Z,80.23
2017-06-24T08:07:02.321Z,80.52
2017-06-24T08:07:43.219Z,80.87
2017-06-24T08:08:24.056Z,81.73
2017-06-24T08:09:04.912Z,81.73
2017-06-24T08:09:45.787Z,82.5
2017-06-24T08:10:26.665Z,82.37
2017-06-24T08:11:07.545Z,82.85
2017-06-24T08:11:48.443Z,82.79
2017-06-24T08:12:29.301Z,81.73
2017-06-24T08:13:10.175Z,81.73
2017-06-24T08:13:51.075Z,81.16
2017-06-24T08:14:31.964Z,81.39
2017-06-24T08:15:12.831Z,81.2
2017-06-24T08:15:53.695Z,81.68
2017-06-24T08:16:34.553Z,82.6
2017-06-24T08:17:15.454Z,83.28
2017-06-24T08:17:56.297Z,82.79
2017-06-24T08:18:37.196Z,82.45
2017-06-24T08:19:18.088Z,81.68
2017-06-24T08:19:58.977Z,81.39
2017-06-24T08:20:39.871Z,80.81
2017-06-24T08:21:20.762Z,81.1
2017-06-24T08:22:01.636Z,80.52
2017-06-24T08:22:42.502Z,80.23
2017-06-24T08:23:23.394Z,80.04
2017-06-24T08:24:04.327Z,80.52
2017-06-24T08:26:51.835Z,79.75
2017-06-24T08:27:32.696Z,80.19
2017-06-24T08:28:13.600Z,80.58
2017-06-24T08:28:54.493Z,81.25
2017-06-24T08:29:35.377Z,81.54
2017-06-24T08:30:16.288Z,81.83
2017-06-24T08:30:57.149Z,82.46
2017-06-24T08:31:38.016Z,82.37
2017-06-24T08:32:18.888Z,81.73
2017-06-24T08:32:59.747Z,82.5
2017-06-24T08:33:40.613Z,82.56
2017-06-24T08:34:21.492Z,81.93
2017-06-24T08:35:02.356Z,80.96
2017-06-24T08:35:43.245Z,79.85
2017-06-24T08:36:24.128Z,80.23
2017-06-24T08:37:05.030Z,79.85
2017-06-24T08:37:45.880Z,79.75
2017-06-24T08:38:26.769Z,80.04
2017-06-24T08:39:07.651Z,79.71
2017-06-24T08:39:48.518Z,80.58
2017-06-24T08:40:29.384Z,80.68
2017-06-24T08:41:10.279Z,80.38
2017-06-24T08:41:51.163Z,80.52
2017-06-24T08:42:32.053Z,80.43
2017-06-24T08:43:12.926Z,79.56
2017-06-24T08:43:53.800Z,80.23
2017-06-24T08:44:34.693Z,80.62
2017-06-24T08:45:15.592Z,80.71
2017-06-24T08:45:56.459Z,79.94
2017-06-24T08:46:37.320Z,79.75
2017-06-24T08:47:18.201Z,79.66
2017-06-24T08:47:59.077Z,80.29
2017-06-24T08:48:39.953Z,80.38
2017-06-24T08:49:20.830Z,80.23
2017-06-24T08:50:01.715Z,79.17
2017-06-24T08:50:42.584Z,78.79
2017-06-24T08:51:23.473Z,79.75
2017-06-24T08:52:04.352Z,80.04
2017-06-24T08:52:45.292Z,80.87
2017-06-24T08:53:26.174Z,81.35
2017-06-24T08:54:07.060Z,82.5
2017-06-24T08:54:47.933Z,82.5
2017-06-24T08:55:28.801Z,83.18
2017-06-24T08:56:09.696Z,82.6
2017-06-24T08:56:50.572Z,82.79
2017-06-24T08:57:31.475Z,82.35
2017-06-24T08:58:12.366Z,81.68
2017-06-24T08:58:53.235Z,81.96
2017-06-24T08:59:34.128Z,80.91
2017-06-24T09:00:15.002Z,80.91
2017-06-24T09:00:55.876Z,80.91
2017-06-24T09:01:36.752Z,82.26
2017-06-24T09:02:17.625Z,81.29
2017-06-24T09:02:58.514Z,80.94
2017-06-24T09:03:39.376Z,80.46
2017-06-24T09:04:20.244Z,80.18
2017-06-24T09:05:01.129Z,80.08
2017-06-24T09:05:41.992Z,79.11
2017-06-24T09:06:22.862Z,79.21
2017-06-24T09:07:03.758Z,78.92
2017-06-24T09:07:44.625Z,80.23
2017-06-24T09:08:25.508Z,80.08
2017-06-24T09:09:06.357Z,79.89
2017-06-24T09:09:47.255Z,81.04
2017-06-24T09:10:28.128Z,80.18
2017-06-24T09:11:09.008Z,80.18
2017-06-24T09:11:49.885Z,80.91
2017-06-24T09:12:30.769Z,81.29
2017-06-24T09:13:11.670Z,82.45
2017-06-24T09:13:52.559Z,82.7
2017-06-24T09:14:33.438Z,83.18
2017-06-24T09:15:14.313Z,82.74
2017-06-24T09:15:55.205Z,82.45
2017-06-24T09:16:36.095Z,80.91
2017-06-24T09:17:16.966Z,80.52
2017-06-24T09:17:57.849Z,80.08
2017-06-24T09:18:38.727Z,79.98
2017-06-24T09:19:19.593Z,79.16
2017-06-24T09:20:00.493Z,78.58
2017-06-24T09:20:41.383Z,78.03
2017-06-24T09:21:22.270Z,77.51
2017-06-24T09:22:03.165Z,78.03
2017-06-24T09:22:44.023Z,77.55
2017-06-24T09:23:24.922Z,77.65
2017-06-24T09:24:05.812Z,77.17
2017-06-24T09:24:46.684Z,77.03
2017-06-24T09:25:27.559Z,77.61
2017-06-24T09:26:08.451Z,79.16
2017-06-24T09:26:49.341Z,78.81
2017-06-24T09:27:30.206Z,77.84
2017-06-24T09:28:11.090Z,78.15
2017-06-24T09:28:51.961Z,79.31
2017-06-24T09:29:32.887Z,78.83
2017-06-24T09:30:13.751Z,78.19
2017-06-24T09:30:54.639Z,76.93
2017-06-24T09:31:35.531Z,76.68
2017-06-24T09:32:16.410Z,76.4
2017-06-24T09:32:57.293Z,76.01
2017-06-24T09:33:40.203Z,76.01
2017-06-24T09:34:23.584Z,75.37
2017-06-24T09:35:04.467Z,75.53
2017-06-24T09:35:45.373Z,76.59
2017-06-24T09:36:26.244Z,77.13
2017-06-24T09:37:07.116Z,77.13
2017-06-24T09:37:53.423Z,76.59
2017-06-24T09:38:34.304Z,76.78
2017-06-24T09:39:15.159Z,77.23
2017-06-24T09:39:56.051Z,77.26
2017-06-24T09:40:36.913Z,77.46
2017-06-24T09:41:17.804Z,77.51
2017-06-24T09:41:58.669Z,78.44
2017-06-24T09:42:39.542Z,79.02
2017-06-24T09:43:20.425Z,79.25
2017-06-24T09:44:01.319Z,79.69
2017-06-24T09:44:42.203Z,79.17
2017-06-24T09:45:23.070Z,79.41
2017-06-24T09:46:03.984Z,78.44
2017-06-24T09:46:44.873Z,78.63
2017-06-24T09:47:25.794Z,78.77
2017-06-24T09:48:06.675Z,78.19
2017-06-24T09:48:47.533Z,77.96
2017-06-24T09:49:28.404Z,77.13
2017-06-24T09:50:09.282Z,77.42
2017-06-24T09:50:50.149Z,76.36
2017-06-24T09:51:31.028Z,76.26
2017-06-24T09:52:11.905Z,77.86
2017-06-24T09:52:52.790Z,77.38
2017-06-24T09:53:33.674Z,77.19
2017-06-24T09:54:14.548Z,76.84
2017-06-24T09:54:55.438Z,77.51
2017-06-24T09:55:36.337Z,77.13
2017-06-24T09:56:17.229Z,76.4
2017-06-24T09:56:58.113Z,75.43
2017-06-24T09:57:39.006Z,75.05
2017-06-24T09:58:19.888Z,74.37
2017-06-24T09:59:00.762Z,76.61
2017-06-24T09:59:41.640Z,76.9
2017-06-24T10:00:22.532Z,76.75
2017-06-24T10:01:03.428Z,75.82
2017-06-24T10:01:44.291Z,75.14
2017-06-24T10:02:25.150Z,76.17
2017-06-24T10:03:06.035Z,76.55
2017-06-24T10:03:46.917Z,75.78
2017-06-24T10:04:27.812Z,75.88
2017-06-24T10:05:08.706Z,75.4
2017-06-24T10:05:49.600Z,74.76
2017-06-24T10:06:30.498Z,74.57
2017-06-24T10:07:11.382Z,73.69
2017-06-24T10:07:52.256Z,74.37
2017-06-24T10:08:33.145Z,75.4
2017-06-24T10:09:14.028Z,76.36
2017-06-24T10:09:54.925Z,76.55
2017-06-24T10:10:35.832Z,76.45
2017-06-24T10:11:16.696Z,75.24
2017-06-24T10:11:57.582Z,74.57
2017-06-24T10:12:38.453Z,74.08
2017-06-24T10:13:19.363Z,72.86
2017-06-24T10:14:00.235Z,72.92
2017-06-24T10:14:41.131Z,72.92
2017-06-24T10:15:22.027Z,73.5
2017-06-24T10:16:02.916Z,74.24
2017-06-24T10:16:43.810Z,74.47
2017-06-24T10:17:24.702Z,74.57
2017-06-24T10:18:05.585Z,75.24
2017-06-24T10:18:46.481Z,74.85
2017-06-24T10:19:27.363Z,74.66
2017-06-24T10:20:08.249Z,73.41
2017-06-24T10:20:49.123Z,73.25
2017-06-24T10:21:30.014Z,72.86
2017-06-24T10:22:10.907Z,72.96
2017-06-24T10:22:51.782Z,72.86
2017-06-24T10:23:32.650Z,73.99
2017-06-24T10:24:13.560Z,74.47
2017-06-24T10:24:54.473Z,73.99
2017-06-24T10:25:35.335Z,73.69
2017-06-24T10:26:16.226Z,73.5
2017-06-24T10:26:57.145Z,73.21
2017-06-24T10:27:38.036Z,73.6
2017-06-24T10:28:18.926Z,73.6
2017-06-24T10:28:59.806Z,73.44
2017-06-24T10:29:40.677Z,72.48
2017-06-24T10:30:21.549Z,72.38
2017-06-24T10:31:02.413Z,72.09